Time;durP1;ratioP1;P1;durP2;ratioP2;P2;SDS_P1;SDS_P2;PMS_P1;PMS_P2;Temp;Humidity;BMP_temperature;BMP_pressure;BME280_temperature;BME280_humidity;BME280_pressure;Samples;Min_cycle;Max_cycle;Signal;HPM_P1;HPM_P2
2023/04/12 00:02:02;;;;;;;;;;;;;;;4.79;100.00;98159.00;4470301;32;20371;-66
2023/04/12 00:04:34;;;;;;;;;;;;;;;4.80;100.00;98158.06;4470152;32;19980;-66
2023/04/12 00:07:02;;;;;;;;;;;;;;;4.87;100.00;98162.78;4470109;32;20036;-66
2023/04/12 00:09:29;;;;;;;;;;;;;;;4.85;100.00;98159.50;4469930;32;20037;-66
2023/04/12 00:11:57;;;;;;;;;;;;;;;4.83;100.00;98154.41;4470092;32;20013;-66
2023/04/12 00:14:25;;;;;;;;;;;;;;;4.87;100.00;98155.81;4470123;32;19988;-66
2023/04/12 00:16:52;;;;;;;;;;;;;;;4.84;100.00;98156.06;4470168;32;19991;-66
2023/04/12 00:19:20;;;;;;;;;;;;;;;4.88;100.00;98160.06;4470177;32;20001;-66
2023/04/12 00:21:47;;;;;;;;;;;;;;;4.88;100.00;98160.06;4469033;32;20415;-66
2023/04/12 00:24:14;;;;;;;;;;;;;;;4.90;100.00;98162.56;4470172;32;19972;-66
2023/04/12 00:26:42;;;;;;;;;;;;;;;4.83;100.00;98158.78;4470170;32;20047;-66
2023/04/12 00:29:09;;;;;;;;;;;;;;;4.82;100.00;98159.72;4469918;32;20330;-66
2023/04/12 00:31:37;;;;;;;;;;;;;;;4.82;100.00;98167.50;4470180;32;20024;-66
2023/04/12 00:34:04;;;;;;;;;;;;;;;4.82;100.00;98160.53;4470171;32;20418;-66
2023/04/12 00:36:32;;;;;;;;;;;;;;;4.82;100.00;98154.53;4470304;32;20369;-66
2023/04/12 00:38:59;;;;;;;;;;;;;;;4.79;100.00;98151.22;4470111;32;19996;-66
2023/04/12 00:41:28;;;;;;;;;;;;;;;4.80;100.00;98158.06;4469971;32;19987;-66
2023/04/12 00:43:56;;;;;;;;;;;;;;;4.81;100.00;98161.47;4469971;32;20039;-66
2023/04/12 00:46:23;;;;;;;;;;;;;;;4.83;100.00;98154.41;4470591;32;20455;-66
2023/04/12 00:48:51;;;;;;;;;;;;;;;4.78;100.00;98164.31;4470130;32;20006;-66
2023/04/12 00:51:21;;;;;;;;;;;;;;;4.80;100.00;98157.25;4470191;32;19988;-66
2023/04/12 00:53:48;;;;;;;;;;;;;;;4.78;100.00;98157.37;4470094;32;20011;-66
2023/04/12 00:56:16;;;;;;;;;;;;;;;4.78;100.00;98165.16;4470055;32;19980;-66
2023/04/12 00:58:43;;;;;;;;;;;;;;;4.69;100.00;98160.62;4468529;32;19976;-66
2023/04/12 01:01:11;;;;;;;;;;;;;;;4.72;100.00;98160.41;4470020;32;20019;-66
2023/04/12 01:03:41;;;;;;;;;;;;;;;4.68;100.00;98156.41;4469799;32;19980;-66
2023/04/12 01:06:19;;;;;;;;;;;;;;;4.65;100.00;98159.22;4469999;32;19980;-66
2023/04/12 01:09:00;;;;;;;;;;;;;;;4.65;100.00;98150.59;4468588;32;20321;-66
2023/04/12 01:11:57;;;;;;;;;;;;;;;4.62;100.00;98151.66;4469841;32;20332;-66
2023/04/12 01:14:35;;;;;;;;;;;;;;;4.56;100.00;98146.94;4452699;32;20340;-66
2023/04/12 01:17:03;;;;;;;;;;;;;;;4.54;100.00;98159.19;4469934;32;20023;-66
2023/04/12 01:19:34;;;;;;;;;;;;;;;4.54;100.00;98167.81;4469810;32;20048;-66
2023/04/12 01:22:21;;;;;;;;;;;;;;;4.53;100.00;98163.56;4469240;32;19984;-66
2023/04/12 01:24:48;;;;;;;;;;;;;;;4.47;100.00;98165.75;4469956;32;19984;-66
2023/04/12 01:27:32;;;;;;;;;;;;;;;4.47;100.00;98169.19;4469782;32;20068;-66
2023/04/12 01:30:00;;;;;;;;;;;;;;;4.49;100.00;98164.72;4468481;32;20037;-66
2023/04/12 01:32:28;;;;;;;;;;;;;;;4.42;100.00;98161.75;4469871;32;20010;-66
2023/04/12 01:34:55;;;;;;;;;;;;;;;4.38;100.00;98162.91;4469599;32;20015;-66
2023/04/12 01:37:23;;;;;;;;;;;;;;;4.39;100.00;98172.34;4469796;32;20016;-66
2023/04/12 01:39:50;;;;;;;;;;;;;;;4.34;100.00;98161.47;4469365;32;20001;-66
2023/04/12 01:42:19;;;;;;;;;;;;;;;4.30;100.00;98175.62;4469640;32;19994;-66
2023/04/12 01:44:48;;;;;;;;;;;;;;;4.35;100.00;98173.50;4469522;32;19993;-66
2023/04/12 01:47:15;;;;;;;;;;;;;;;4.43;100.00;98184.12;4469668;32;20039;-66
2023/04/12 01:49:46;;;;;;;;;;;;;;;4.48;100.00;98172.59;4469801;32;20376;-66
2023/04/12 01:52:16;;;;;;;;;;;;;;;4.39;100.00;98158.53;4468517;32;19988;-66
2023/04/12 01:54:43;;;;;;;;;;;;;;;4.39;100.00;98167.16;4468446;32;19968;-66
2023/04/12 01:57:10;;;;;;;;;;;;;;;4.32;100.00;98163.38;4468305;32;19976;-66
2023/04/12 01:59:40;;;;;;;;;;;;;;;4.33;100.00;98175.41;4469368;32;19992;-66
2023/04/12 02:02:08;;;;;;;;;;;;;;;4.37;100.00;98158.66;4469478;32;20354;-66
2023/04/12 02:04:36;;;;;;;;;;;;;;;4.37;100.00;98163.03;4469427;32;20058;-66
2023/04/12 02:07:04;;;;;;;;;;;;;;;4.32;100.00;98160.78;4468185;32;20461;-66
2023/04/12 02:09:35;;;;;;;;;;;;;;;4.29;100.00;98152.41;4469251;32;20001;-66
2023/04/12 02:12:07;;;;;;;;;;;;;;;4.30;100.00;98149.69;4469263;32;19988;-66
2023/04/12 02:14:35;;;;;;;;;;;;;;;4.24;100.00;98147.56;4469237;32;20055;-66
2023/04/12 02:17:04;;;;;;;;;;;;;;;4.23;100.00;98148.50;4469359;32;20465;-66
2023/04/12 02:19:31;;;;;;;;;;;;;;;4.25;100.00;98136.22;4469220;32;19992;-66
2023/04/12 02:22:00;;;;;;;;;;;;;;;4.28;100.00;98146.38;4469379;32;19975;-66
2023/04/12 02:24:28;;;;;;;;;;;;;;;4.30;100.00;98136.72;4469112;32;19986;-66
2023/04/12 02:26:56;;;;;;;;;;;;;;;4.26;100.00;98137.88;4469225;32;19991;-66
2023/04/12 02:29:24;;;;;;;;;;;;;;;4.25;100.00;98141.41;4468999;32;19980;-66
2023/04/12 02:31:52;;;;;;;;;;;;;;;4.20;100.00;98146.12;4469201;32;20514;-66
2023/04/12 02:34:21;;;;;;;;;;;;;;;4.16;100.00;98153.28;4470756;32;19984;-66
2023/04/12 02:36:49;;;;;;;;;;;;;;;4.12;100.00;98144.09;4471513;32;19992;-66
2023/04/12 02:39:20;;;;;;;;;;;;;;;4.05;100.00;98140.28;4471061;32;19992;-66
2023/04/12 02:41:49;;;;;;;;;;;;;;;4.02;100.00;98146.50;4470953;32;20024;-66
2023/04/12 02:44:17;;;;;;;;;;;;;;;3.94;100.00;98133.28;4471206;32;19999;-66
2023/04/12 02:46:44;;;;;;;;;;;;;;;3.94;100.00;98133.28;4471156;32;19980;-66
2023/04/12 02:49:15;;;;;;;;;;;;;;;3.86;100.00;98144.22;4471189;32;20066;-66
2023/04/12 02:51:43;;;;;;;;;;;;;;;3.86;100.00;98133.00;4471119;32;19980;-66
2023/04/12 02:54:10;;;;;;;;;;;;;;;3.89;100.00;98140.56;4471168;32;20028;-66
2023/04/12 02:56:38;;;;;;;;;;;;;;;3.78;100.00;98128.38;4471267;32;19996;-66
2023/04/12 02:59:06;;;;;;;;;;;;;;;3.84;100.00;98121.94;4470933;32;19984;-66
2023/04/12 03:01:34;;;;;;;;;;;;;;;3.77;100.00;98116.38;4471292;32;20033;-66
2023/04/12 03:04:04;;;;;;;;;;;;;;;3.78;100.00;98118.00;4470860;32;19999;-66
2023/04/12 03:06:32;;;;;;;;;;;;;;;3.75;100.00;98120.81;4471088;32;20013;-66
2023/04/12 03:09:00;;;;;;;;;;;;;;;3.69;100.00;98118.66;4470691;32;20334;-66
2023/04/12 03:11:30;;;;;;;;;;;;;;;3.74;100.00;98121.78;4470807;32;19984;-66
2023/04/12 03:13:57;;;;;;;;;;;;;;;3.69;100.00;98114.34;4471008;32;20059;-66
2023/04/12 03:16:28;;;;;;;;;;;;;;;3.76;100.00;98108.72;4470651;32;19968;-66
2023/04/12 03:18:58;;;;;;;;;;;;;;;3.75;100.00;98104.47;4471056;32;20043;-66
2023/04/12 03:21:27;;;;;;;;;;;;;;;3.77;100.00;98103.44;4470889;32;20033;-66
2023/04/12 03:23:54;;;;;;;;;;;;;;;3.75;100.00;98107.88;4470937;32;19984;-66
2023/04/12 03:26:25;;;;;;;;;;;;;;;3.81;100.00;98102.25;4470429;32;19984;-66
2023/04/12 03:28:55;;;;;;;;;;;;;;;3.79;100.00;98104.13;4471041;32;19992;-66
2023/04/12 03:31:23;;;;;;;;;;;;;;;3.78;100.00;98093.88;4471022;32;19984;-66
2023/04/12 03:33:50;;;;;;;;;;;;;;;3.66;100.00;98099.00;4470775;32;19980;-66
2023/04/12 03:36:20;;;;;;;;;;;;;;;3.64;100.00;98100.06;4470949;32;19980;-66
2023/04/12 03:38:49;;;;;;;;;;;;;;;3.66;100.00;98093.81;4470963;32;19976;-66
2023/04/12 03:41:17;;;;;;;;;;;;;;;3.60;100.00;98093.44;4470473;32;19984;-66
2023/04/12 03:43:44;;;;;;;;;;;;;;;3.62;100.00;98091.56;4470741;32;19980;-66
2023/04/12 03:46:14;;;;;;;;;;;;;;;3.58;100.00;98106.50;4469890;32;19983;-66
2023/04/12 03:48:42;;;;;;;;;;;;;;;3.72;100.00;98105.50;4456657;32;20049;-66
2023/04/12 03:51:11;;;;;;;;;;;;;;;3.73;100.00;98100.22;4470655;32;20342;-66
2023/04/12 03:53:40;;;;;;;;;;;;;;;3.67;100.00;98099.84;4470815;32;20003;-66
2023/04/12 03:56:09;;;;;;;;;;;;;;;3.62;100.00;98092.41;4470827;32;19995;-66
2023/04/12 03:58:36;;;;;;;;;;;;;;;3.71;100.00;98088.31;4470567;32;20250;-66
2023/04/12 04:01:08;;;;;;;;;;;;;;;3.64;100.00;98084.50;4470639;32;19980;-66
2023/04/12 04:03:36;;;;;;;;;;;;;;;3.56;100.00;98082.47;4471467;32;20033;-66
2023/04/12 04:06:04;;;;;;;;;;;;;;;3.46;100.00;98081.47;4468871;32;20355;-66
2023/04/12 04:08:31;;;;;;;;;;;;;;;3.43;100.00;98072.16;4468961;32;19976;-66
2023/04/12 04:10:59;;;;;;;;;;;;;;;3.52;100.00;98073.28;4468675;32;20010;-66
2023/04/12 04:13:29;;;;;;;;;;;;;;;3.51;100.00;98079.38;4463918;32;20005;-66
2023/04/12 04:16:01;;;;;;;;;;;;;;;3.50;100.00;98077.75;4477469;32;19990;-66
2023/04/12 04:18:29;;;;;;;;;;;;;;;3.50;100.00;98077.75;4469891;32;20021;-66
2023/04/12 04:20:57;;;;;;;;;;;;;;;3.55;100.00;98080.81;4469425;32;20005;-66
2023/04/12 04:23:26;;;;;;;;;;;;;;;3.62;100.00;98071.69;4468230;32;19980;-66
2023/04/12 04:25:55;;;;;;;;;;;;;;;3.63;100.00;98080.25;4469488;32;20148;-66
2023/04/12 04:28:24;;;;;;;;;;;;;;;3.71;100.00;98076.19;4469465;32;19988;-66
2023/04/12 04:30:54;;;;;;;;;;;;;;;3.81;100.00;98076.34;4473531;32;19995;-66
2023/04/12 04:33:23;;;;;;;;;;;;;;;3.79;100.00;98087.78;4474743;31;19980;-66
2023/04/12 04:35:53;;;;;;;;;;;;;;;3.83;100.00;98089.19;4467969;32;19976;-66
2023/04/12 04:38:24;;;;;;;;;;;;;;;3.87;100.00;98090.63;4469343;32;19992;-66
2023/04/12 04:40:52;;;;;;;;;;;;;;;3.89;100.00;98101.69;4469333;32;20098;-66
2023/04/12 04:43:20;;;;;;;;;;;;;;;3.93;100.00;98097.13;4469001;32;20334;-66
2023/04/12 04:45:53;;;;;;;;;;;;;;;3.96;100.00;98100.31;4469494;32;19972;-66
2023/04/12 04:48:21;;;;;;;;;;;;;;;3.95;100.00;98098.69;4468889;32;19980;-66
2023/04/12 04:50:50;;;;;;;;;;;;;;;3.98;100.00;98098.44;4468527;32;19988;-66
2023/04/12 04:53:20;;;;;;;;;;;;;;;4.08;100.00;98103.78;4470422;32;19983;-66
2023/04/12 04:55:48;;;;;;;;;;;;;;;4.05;100.00;98099.62;4470968;32;20013;-66
2023/04/12 04:58:16;;;;;;;;;;;;;;;4.08;100.00;98096.81;4469127;32;19979;-66
2023/04/12 05:00:44;;;;;;;;;;;;;;;4.18;100.00;98090.94;4469973;32;20032;-66
2023/04/12 05:03:11;;;;;;;;;;;;;;;4.24;100.00;98090.53;4468673;32;20010;-66
2023/04/12 05:05:39;;;;;;;;;;;;;;;4.33;100.00;98086.41;4468889;32;19972;-66
2023/04/12 05:08:06;;;;;;;;;;;;;;;4.37;100.00;98086.06;4470473;32;20285;-66
2023/04/12 05:10:34;;;;;;;;;;;;;;;4.46;100.00;98091.50;4471212;32;19998;-66
2023/04/12 05:13:02;;;;;;;;;;;;;;;4.47;100.00;98098.31;4468382;32;19976;-66
2023/04/12 05:15:30;;;;;;;;;;;;;;;4.59;100.00;98107.81;4466661;32;20007;-66
2023/04/12 05:17:58;;;;;;;;;;;;;;;4.53;100.00;98100.50;4467841;31;19992;-67
2023/04/12 05:20:26;;;;;;;;;;;;;;;4.67;100.00;98104.63;4467393;32;19984;-66
2023/04/12 05:22:54;;;;;;;;;;;;;;;4.52;100.00;98110.00;4465059;32;20357;-67
2023/04/12 05:25:22;;;;;;;;;;;;;;;4.61;100.00;98095.53;4469699;32;19972;-66
2023/04/12 05:27:50;;;;;;;;;;;;;;;4.63;100.00;98098.81;4468864;32;20086;-67
2023/04/12 05:30:19;;;;;;;;;;;;;;;4.66;100.00;98103.78;4469002;32;20047;-67
2023/04/12 05:32:46;;;;;;;;;;;;;;;4.77;100.00;98093.44;4469248;32;20445;-66
2023/04/12 05:35:15;;;;;;;;;;;;;;;4.92;100.00;98098.38;4471344;32;20390;-66
2023/04/12 05:37:42;;;;;;;;;;;;;;;4.95;100.00;98092.94;4478919;32;19989;-66
2023/04/12 05:40:12;;;;;;;;;;;;;;;5.02;100.00;98099.31;4476191;32;19987;-67
2023/04/12 05:42:40;;;;;;;;;;;;;;;5.10;100.00;98096.13;4473287;31;20350;-66
2023/04/12 05:45:07;;;;;;;;;;;;;;;5.09;100.00;98092.72;4469045;32;20366;-67
2023/04/12 05:47:35;;;;;;;;;;;;;;;5.31;100.00;98099.66;4471878;32;20003;-66
2023/04/12 05:50:03;;;;;;;;;;;;;;;5.44;100.00;98096.91;4469318;32;19987;-67
2023/04/12 05:52:33;;;;;;;;;;;;;;;5.57;100.00;98096.78;4468890;32;20103;-66
2023/04/12 05:55:00;;;;;;;;;;;;;;;5.57;100.00;98104.56;4466922;32;19964;-66
2023/04/12 05:57:28;;;;;;;;;;;;;;;5.63;100.00;98104.09;4469347;32;20000;-66
2023/04/12 05:59:55;;;;;;;;;;;;;;;5.63;100.00;98104.09;4478191;31;20338;-65
2023/04/12 06:02:24;;;;;;;;;;;;;;;5.66;100.00;98106.44;4469653;32;19983;-65
2023/04/12 06:04:54;;;;;;;;;;;;;;;5.71;100.00;98110.44;4472436;32;19993;-66
2023/04/12 06:07:22;;;;;;;;;;;;;;;5.72;100.00;98110.31;4473471;31;20000;-65
2023/04/12 06:09:49;;;;;;;;;;;;;;;5.83;100.00;98119.88;4457630;32;20016;-65
2023/04/12 06:12:17;;;;;;;;;;;;;;;5.98;100.00;98113.44;4463996;32;19984;-66
2023/04/12 06:14:45;;;;;;;;;;;;;;;5.96;100.00;98112.69;4464627;32;20379;-66
2023/04/12 06:17:12;;;;;;;;;;;;;;;6.01;100.00;98120.16;4465049;32;19996;-65
2023/04/12 06:19:40;;;;;;;;;;;;;;;6.10;100.00;98105.59;4465278;32;20334;-66
2023/04/12 06:22:08;;;;;;;;;;;;;;;6.18;100.00;98101.41;4464580;32;19994;-65
2023/04/12 06:24:37;;;;;;;;;;;;;;;6.13;100.00;98106.19;4465449;32;19980;-65
2023/04/12 06:27:05;;;;;;;;;;;;;;;6.09;100.00;98101.38;4464768;32;19980;-65
2023/04/12 06:29:32;;;;;;;;;;;;;;;6.20;100.00;98106.50;4462528;31;20617;-65
2023/04/12 06:32:00;;;;;;;;;;;;;;;6.26;100.00;98102.56;4465854;32;20027;-63
2023/04/12 06:34:28;;;;;;;;;;;;;;;6.42;100.00;98105.56;4465727;32;19984;-65
2023/04/12 06:36:56;;;;;;;;;;;;;;;6.30;100.00;98114.34;4464953;32;19999;-65
2023/04/12 06:39:24;;;;;;;;;;;;;;;6.51;100.00;98115.22;4467029;32;20403;-65
2023/04/12 06:41:56;;;;;;;;;;;;;;;6.53;100.00;98107.28;4465361;32;20367;-65
2023/04/12 06:44:25;;;;;;;;;;;;;;;6.58;100.00;98112.91;4466559;32;20034;-65
2023/04/12 06:46:52;;;;;;;;;;;;;;;6.57;100.00;98106.03;4463341;32;19981;-64
2023/04/12 06:49:20;;;;;;;;;;;;;;;6.71;100.00;98100.53;4463652;32;19980;-65
2023/04/12 06:51:47;;;;;;;;;;;;;;;6.73;100.00;98108.19;4465832;32;20006;-65
2023/04/12 06:54:15;;;;;;;;;;;;;;;6.88;100.00;98106.91;4463157;32;20085;-65
2023/04/12 06:56:42;;;;;;;;;;;;;;;6.88;100.00;98114.72;4462024;32;20010;-65
2023/04/12 06:59:10;;;;;;;;;;;;;;;6.98;100.00;98112.16;4462710;32;19988;-66
2023/04/12 07:01:37;;;;;;;;;;;;;;;7.13;100.00;98117.84;4465926;32;19988;-65
2023/04/12 07:04:06;;;;;;;;;;;;;;;7.21;100.00;98122.41;4463257;32;20018;-65
2023/04/12 07:06:35;;;;;;;;;;;;;;;7.17;100.00;98119.22;4466127;32;20003;-66
2023/04/12 07:09:02;;;;;;;;;;;;;;;7.26;100.00;98117.59;4464419;32;20331;-66
2023/04/12 07:11:30;;;;;;;;;;;;;;;7.52;100.00;98125.75;4463560;32;21884;-66
2023/04/12 07:13:58;;;;;;;;;;;;;;;7.44;100.00;98144.66;4465002;32;19999;-67
2023/04/12 07:16:26;;;;;;;;;;;;;;;7.61;100.00;98140.59;4464311;32;19993;-66
2023/04/12 07:18:54;;;;;;;;;;;;;;;7.67;100.00;98143.66;4463723;32;20007;-66
2023/04/12 07:21:21;;;;;;;;;;;;;;;7.58;100.00;98135.66;4466003;32;20526;-67
2023/04/12 07:23:50;;;;;;;;;;;;;;;7.64;100.00;98124.72;4466874;32;20758;-66
2023/04/12 07:26:20;;;;;;;;;;;;;;;7.80;100.00;98133.78;4469769;32;20107;-68
2023/04/12 07:28:48;;;;;;;;;;;;;;;7.82;100.00;98135.28;4465123;32;20035;-67
2023/04/12 07:31:15;;;;;;;;;;;;;;;7.89;100.00;98130.38;4465449;32;19987;-67
2023/04/12 07:33:43;;;;;;;;;;;;;;;8.02;100.00;98127.47;4464793;32;19991;-69
2023/04/12 07:36:10;;;;;;;;;;;;;;;8.12;100.00;98125.69;4467090;32;20067;-68
2023/04/12 07:38:38;;;;;;;;;;;;;;;8.20;100.00;98124.19;4466486;32;20730;-69
2023/04/12 07:41:05;;;;;;;;;;;;;;;8.32;100.00;98129.12;4466815;32;20837;-68
2023/04/12 07:43:33;;;;;;;;;;;;;;;8.52;100.00;98134.34;4468057;32;19997;-70
2023/04/12 07:46:06;;;;;;;;;;;;;;;8.56;100.00;98124.47;4468592;32;19976;-68
2023/04/12 07:48:33;;;;;;;;;;;;;;;8.60;100.00;98123.22;4466800;32;20012;-68
2023/04/12 07:51:01;;;;;;;;;;;;;;;8.60;100.00;98118.84;4464740;32;20467;-68
2023/04/12 07:53:28;;;;;;;;;;;;;;;8.66;100.00;98115.66;4466346;32;19976;-68
2023/04/12 07:55:56;;;;;;;;;;;;;;;8.78;100.00;98118.09;4466271;32;20647;-67
2023/04/12 07:58:24;;;;;;;;;;;;;;;8.99;100.00;98110.87;4468480;32;19993;-67
2023/04/12 08:00:52;;;;;;;;;;;;;;;8.99;100.00;98105.66;4462727;32;20036;-67
2023/04/12 08:03:20;;;;;;;;;;;;;;;8.98;100.00;98106.62;4471269;32;19991;-67
2023/04/12 08:05:52;;;;;;;;;;;;;;;9.05;100.00;98099.88;4469120;32;20120;-69
2023/04/12 08:08:23;;;;;;;;;;;;;;;9.24;99.65;98106.78;4467666;32;19980;-67
2023/04/12 08:10:50;;;;;;;;;;;;;;;9.25;99.21;98107.62;4462719;32;20030;-67
2023/04/12 08:13:18;;;;;;;;;;;;;;;9.41;99.34;98093.91;4463187;32;19989;-65
2023/04/12 08:15:46;;;;;;;;;;;;;;;9.68;91.92;98090.44;4467658;32;19984;-65
2023/04/12 08:18:14;;;;;;;;;;;;;;;9.67;91.53;98104.47;4466896;32;19984;-66
2023/04/12 08:20:44;;;;;;;;;;;;;;;9.63;87.56;98107.53;4466437;32;19999;-66
2023/04/12 08:23:12;;;;;;;;;;;;;;;9.74;88.39;98097.69;4465510;32;20033;-65
2023/04/12 08:25:39;;;;;;;;;;;;;;;9.65;86.83;98095.97;4465935;32;19992;-66
2023/04/12 08:28:10;;;;;;;;;;;;;;;9.80;91.00;98095.47;4465681;32;19992;-66
2023/04/12 08:30:37;;;;;;;;;;;;;;;9.96;91.26;98098.19;4459436;32;20372;-66
2023/04/12 08:33:05;;;;;;;;;;;;;;;10.11;93.02;98107.19;4459904;32;19976;-65
2023/04/12 08:35:33;;;;;;;;;;;;;;;10.08;89.55;98101.41;4468161;31;20363;-66
2023/04/12 08:38:06;;;;;;;;;;;;;;;10.17;86.78;98095.28;4465919;32;20287;-66
2023/04/12 08:40:35;;;;;;;;;;;;;;;10.31;85.00;98101.78;4467007;32;20048;-67
2023/04/12 08:43:05;;;;;;;;;;;;;;;10.32;84.45;98090.31;4476883;31;20008;-64
2023/04/12 08:45:33;;;;;;;;;;;;;;;10.33;83.69;98088.56;4465021;32;20091;-64
2023/04/12 08:48:02;;;;;;;;;;;;;;;10.30;81.66;98089.66;4461558;32;20009;-65
2023/04/12 08:50:30;;;;;;;;;;;;;;;10.53;83.04;98082.16;4463399;32;19995;-65
2023/04/12 08:52:58;;;;;;;;;;;;;;;10.66;82.56;98084.38;4463813;32;20038;-64
2023/04/12 08:55:25;;;;;;;;;;;;;;;10.63;75.04;98082.06;4467185;32;20084;-64
2023/04/12 08:57:57;;;;;;;;;;;;;;;10.60;71.33;98077.16;4465006;32;19994;-64
2023/04/12 09:00:25;;;;;;;;;;;;;;;10.72;74.66;98086.38;4466367;32;20040;-64
2023/04/12 09:02:52;;;;;;;;;;;;;;;10.87;74.21;98081.41;4463343;32;20063;-65
2023/04/12 09:05:26;;;;;;;;;;;;;;;10.85;68.38;98072.03;4466559;32;19992;-64
2023/04/12 09:07:53;;;;;;;;;;;;;;;11.00;71.58;98076.53;4462269;32;20317;-64
2023/04/12 09:10:28;;;;;;;;;;;;;;;11.09;69.16;98073.94;4462451;32;20006;-65
2023/04/12 09:12:56;;;;;;;;;;;;;;;11.10;68.73;98070.38;4463593;32;20036;-64
2023/04/12 09:15:23;;;;;;;;;;;;;;;11.28;63.90;98096.47;4465080;32;19996;-65
2023/04/12 09:18:04;;;;;;;;;;;;;;;10.75;62.15;98078.22;4466967;32;20040;-65
2023/04/12 09:20:32;;;;;;;;;;;;;;;11.35;67.95;98079.97;4465306;32;20008;-65
2023/04/12 09:23:01;;;;;;;;;;;;;;;11.61;64.21;98073.81;4462327;32;19992;-65
2023/04/12 09:25:36;;;;;;;;;;;;;;;11.56;58.30;98077.88;4461073;32;20035;-65
2023/04/12 09:28:04;;;;;;;;;;;;;;;11.56;61.05;98080.50;4461404;32;19988;-65
2023/04/12 09:30:33;;;;;;;;;;;;;;;11.42;60.84;98074.06;4465548;31;20399;-65
2023/04/12 09:33:09;;;;;;;;;;;;;;;11.83;61.58;98074.16;4459155;32;19979;-65
2023/04/12 09:35:37;;;;;;;;;;;;;;;11.86;58.57;98066.75;4465695;32;20006;-65
2023/04/12 09:38:07;;;;;;;;;;;;;;;12.14;59.80;98077.00;4465608;32;19984;-65
2023/04/12 09:40:35;;;;;;;;;;;;;;;12.24;59.07;98064.50;4465654;32;19983;-65
2023/04/12 09:43:02;;;;;;;;;;;;;;;12.05;56.97;98076.19;4464582;32;19981;-65
2023/04/12 09:45:32;;;;;;;;;;;;;;;12.05;54.35;98075.34;4466200;32;20086;-65
2023/04/12 09:47:59;;;;;;;;;;;;;;;11.72;54.55;98062.16;4463557;32;19980;-65
2023/04/12 09:50:27;;;;;;;;;;;;;;;11.71;53.77;98057.91;4463122;32;20318;-66
2023/04/12 09:52:55;;;;;;;;;;;;;;;11.62;53.52;98059.69;4464198;32;21766;-66
2023/04/12 09:55:24;;;;;;;;;;;;;;;11.70;55.69;98053.62;4465327;32;20003;-66
2023/04/12 09:57:53;;;;;;;;;;;;;;;11.83;53.90;98056.59;4465300;32;20002;-66
2023/04/12 10:00:21;;;;;;;;;;;;;;;11.81;49.96;98053.31;4465429;32;20344;-66
2023/04/12 10:02:51;;;;;;;;;;;;;;;11.94;52.22;98057.28;4466887;32;20382;-67
2023/04/12 10:05:19;;;;;;;;;;;;;;;12.07;53.68;98057.63;4467616;32;20059;-66
2023/04/12 10:07:47;;;;;;;;;;;;;;;12.14;53.86;98053.38;4478276;31;20864;-65
2023/04/12 10:10:16;;;;;;;;;;;;;;;11.89;51.85;98070.88;4476541;32;20003;-65
2023/04/12 10:12:45;;;;;;;;;;;;;;;11.95;51.22;98061.56;4466500;32;20047;-65
2023/04/12 10:15:14;;;;;;;;;;;;;;;12.09;52.32;98055.66;4473207;32;20046;-66
2023/04/12 10:17:45;;;;;;;;;;;;;;;12.34;58.58;98063.50;4467198;32;20020;-67
2023/04/12 10:20:14;;;;;;;;;;;;;;;12.18;56.71;98046.78;4467621;32;19977;-65
2023/04/12 10:22:42;;;;;;;;;;;;;;;12.45;59.58;98055.31;4463871;32;20306;-66
2023/04/12 10:25:14;;;;;;;;;;;;;;;12.55;55.69;98050.69;4470344;32;20314;-64
2023/04/12 10:27:42;;;;;;;;;;;;;;;12.44;51.79;98058.91;4471445;32;20300;-66
2023/04/12 10:30:20;;;;;;;;;;;;;;;12.42;51.74;98045.94;4466236;32;19988;-66
2023/04/12 10:32:48;;;;;;;;;;;;;;;12.57;56.58;98059.22;4467461;32;19980;-67
2023/04/12 10:35:16;;;;;;;;;;;;;;;12.57;54.81;98056.59;4464921;32;19996;-64
2023/04/12 10:38:06;;;;;;;;;;;;;;;12.52;52.50;98064.16;4475580;32;19988;-65
2023/04/12 10:40:34;;;;;;;;;;;;;;;12.44;53.49;98045.78;4463041;32;20046;-65
2023/04/12 10:43:20;;;;;;;;;;;;;;;12.85;54.87;98043.03;4471100;31;19993;-66
2023/04/12 10:45:48;;;;;;;;;;;;;;;12.86;53.58;98031.53;4468881;32;20442;-66
2023/04/12 10:48:30;;;;;;;;;;;;;;;12.74;53.29;98041.59;4470344;32;19980;-67
2023/04/12 10:51:17;;;;;;;;;;;;;;;12.31;52.46;98037.56;4472160;32;19981;-66
2023/04/12 10:53:47;;;;;;;;;;;;;;;12.59;51.34;98036.22;4465013;32;19981;-66
2023/04/12 10:56:33;;;;;;;;;;;;;;;12.74;51.58;98032.91;4470937;32;19996;-64
2023/04/12 10:59:01;;;;;;;;;;;;;;;12.69;51.55;98020.28;4469349;32;20321;-66
2023/04/12 11:01:30;;;;;;;;;;;;;;;12.83;50.03;98021.38;4464860;32;20001;-66
2023/04/12 11:04:07;;;;;;;;;;;;;;;12.81;49.60;98015.47;4469978;32;19979;-67
2023/04/12 11:06:57;;;;;;;;;;;;;;;13.04;48.77;98025.25;4463868;32;20323;-67
2023/04/12 11:09:27;;;;;;;;;;;;;;;13.01;48.82;98017.69;4471165;32;20001;-66
2023/04/12 11:11:56;;;;;;;;;;;;;;;12.89;50.13;98018.06;4462910;32;20498;-65
2023/04/12 11:14:28;;;;;;;;;;;;;;;12.91;48.05;98021.34;4469580;32;20020;-66
2023/04/12 11:17:08;;;;;;;;;;;;;;;12.93;49.00;98016.72;4468430;32;20029;-66
2023/04/12 11:19:56;;;;;;;;;;;;;;;12.81;46.45;98004.97;4471939;32;19995;-64
2023/04/12 11:22:26;;;;;;;;;;;;;;;13.18;47.43;98003.47;4466147;32;20093;-64
2023/04/12 11:24:54;;;;;;;;;;;;;;;12.99;46.05;98014.41;4466206;31;19999;-64
2023/04/12 11:27:22;;;;;;;;;;;;;;;12.98;46.55;98013.59;4459029;32;19984;-65
2023/04/12 11:29:51;;;;;;;;;;;;;;;13.02;43.64;98001.75;4469090;32;20005;-65
2023/04/12 11:32:19;;;;;;;;;;;;;;;13.12;44.83;98009.41;4467524;32;19984;-65
2023/04/12 11:34:47;;;;;;;;;;;;;;;13.24;46.39;98008.03;4466476;32;20502;-64
2023/04/12 11:37:16;;;;;;;;;;;;;;;13.29;47.65;98005.72;4469102;32;19988;-65
2023/04/12 11:39:44;;;;;;;;;;;;;;;13.32;47.00;97997.47;4468553;32;20084;-65
2023/04/12 11:42:15;;;;;;;;;;;;;;;13.15;47.91;98003.81;4473214;32;20030;-63
2023/04/12 11:44:43;;;;;;;;;;;;;;;13.31;48.90;98002.91;4475150;31;20048;-65
2023/04/12 11:47:25;;;;;;;;;;;;;;;13.55;45.71;98003.75;4472622;31;20003;-66
2023/04/12 11:49:56;;;;;;;;;;;;;;;13.62;46.11;97989.72;4468994;32;19992;-66
2023/04/12 11:52:28;;;;;;;;;;;;;;;13.46;47.13;97989.87;4468328;32;19984;-67
2023/04/12 11:55:00;;;;;;;;;;;;;;;13.48;45.88;97988.69;4468638;32;19972;-66
2023/04/12 11:57:29;;;;;;;;;;;;;;;13.51;44.60;97987.50;4473226;32;19992;-66
2023/04/12 12:00:00;;;;;;;;;;;;;;;13.48;43.86;97986.03;4467737;32;19984;-66
2023/04/12 12:02:27;;;;;;;;;;;;;;;13.63;44.85;97985.31;4468918;32;20444;-65
2023/04/12 12:05:01;;;;;;;;;;;;;;;13.52;43.24;97986.53;4470236;32;20000;-66
2023/04/12 12:07:29;;;;;;;;;;;;;;;13.44;44.23;97987.41;4469171;32;20051;-66
2023/04/12 12:09:57;;;;;;;;;;;;;;;13.45;45.05;97990.84;4466558;32;20328;-67
2023/04/12 12:12:24;;;;;;;;;;;;;;;13.27;45.40;97967.41;4465742;32;22086;-67
2023/04/12 12:14:52;;;;;;;;;;;;;;;13.14;45.49;97965.34;4468341;32;19972;-66
2023/04/12 12:17:19;;;;;;;;;;;;;;;12.97;45.29;97959.34;4471753;32;19984;-66
2023/04/12 12:19:47;;;;;;;;;;;;;;;13.19;45.24;97952.50;4469514;32;19976;-66
2023/04/12 12:22:18;;;;;;;;;;;;;;;13.41;44.96;97971.13;4470743;32;19995;-66
2023/04/12 12:24:45;;;;;;;;;;;;;;;13.48;45.26;97966.81;4467819;32;20009;-66
2023/04/12 12:27:16;;;;;;;;;;;;;;;13.60;45.44;97956.69;4470806;32;20059;-65
2023/04/12 12:29:43;;;;;;;;;;;;;;;13.81;45.90;97963.94;4469194;32;19995;-66
2023/04/12 12:32:12;;;;;;;;;;;;;;;14.07;45.34;97949.56;4463240;32;20002;-67
2023/04/12 12:34:40;;;;;;;;;;;;;;;14.04;45.95;97944.66;4471124;32;19998;-66
2023/04/12 12:37:09;;;;;;;;;;;;;;;14.09;44.84;97950.19;4471106;32;20011;-66
2023/04/12 12:39:36;;;;;;;;;;;;;;;14.01;45.53;97951.09;4479297;31;20025;-66
2023/04/12 12:42:05;;;;;;;;;;;;;;;14.07;44.08;97952.19;4478955;32;20384;-66
2023/04/12 12:44:32;;;;;;;;;;;;;;;14.28;42.60;97940.94;4479745;31;19984;-65
2023/04/12 12:47:03;;;;;;;;;;;;;;;14.14;42.65;97943.37;4470133;32;20439;-64
2023/04/12 12:49:41;;;;;;;;;;;;;;;14.16;43.00;97937.94;4472507;32;19994;-65
2023/04/12 12:52:08;;;;;;;;;;;;;;;14.15;43.89;97941.56;4476386;31;20011;-65
2023/04/12 12:54:36;;;;;;;;;;;;;;;14.20;41.40;97933.91;4479724;32;19984;-65
2023/04/12 12:57:09;;;;;;;;;;;;;;;14.32;42.69;97931.66;4476080;31;20381;-65
2023/04/12 12:59:37;;;;;;;;;;;;;;;14.46;43.63;97937.91;4471816;32;20026;-66